Argonia, Kansas
Current Conditions -  °F | °C
As of 2:53 PM on Saturday 20 Dec 2014 (Local Time) from KICT Reporting Station
Overcast Overcast  
Wind Chill:   Ceiling: 2300
Heat Index:   Visibility: 10mi
Dew Point:   Wind: 15mph
Humidity: 64%   Direction: 200°SSW
Pressure: 30.09"   Gusts: NA
Location:  37.27°N, 97.77°W
Report Text: KICT 202053Z 20013KT 10SM OVC023 09/03 A3009 RMK AO2 SLP194 T00940028 56020 $
Loading
Personal Weather Stations






























Interactive Weather Map New forecast layout! Learn more

10-Day Weather Forecast

Advertisements
Track Severe Weather on mobile